Roans Prairie, Texas
Current Conditions -  °F | °C
As of 7:15 PM on Saturday 22 Nov 2014 (Local Time) from KUTS Reporting Station
Thunderstorm Thunderstorm  
Wind Chill: 64°   Ceiling: 400
Heat Index: 64°   Visibility: 2.5mi
Dew Point: 63°   Wind: 12mph
Humidity: 96%   Direction: 320°NW
Pressure: 29.8"   Gusts: NA
Location:  30.58°N, 95.94°W
Report Text: KUTS 230115Z AUTO 32010KT 2 1/2SM VCTS +RA BR BKN004 OVC008 18/17 A2980 RMK AO2 VIS 1 1/2V3 LTG DSNT ALQDS P0023 T01780172
Loading
Personal Weather Stations






























Interactive Weather Map New forecast layout! Learn more

10-Day Weather Forecast

Advertisements
Track Severe Weather on mobile